createdAt,value
2019-03-05T00:01:53.866Z,6.10
2019-03-05T00:04:27.983Z,6.10
2019-03-05T00:06:58.966Z,6.10
2019-03-05T00:09:54.837Z,6.10
2019-03-05T00:12:30.383Z,6.10
2019-03-05T00:15:27.139Z,6.10
2019-03-05T00:18:14.659Z,6.10
2019-03-05T00:21:02.756Z,6.10
2019-03-05T00:24:09.328Z,6.10
2019-03-05T00:26:40.035Z,6.10
2019-03-05T00:29:45.528Z,6.10
2019-03-05T00:32:15.733Z,6.00
2019-03-05T00:35:15.754Z,6.00
2019-03-05T00:38:02.814Z,6.00
2019-03-05T00:41:03.694Z,5.90
2019-03-05T00:44:03.308Z,5.90
2019-03-05T00:46:45.659Z,5.80
2019-03-05T00:49:48.761Z,5.70
2019-03-05T00:52:41.156Z,5.70
2019-03-05T00:55:55.685Z,5.60
2019-03-05T00:58:48.404Z,5.60
2019-03-05T01:01:48.662Z,5.60
2019-03-05T01:04:52.014Z,5.60
2019-03-05T01:07:24.960Z,5.50
2019-03-05T01:09:54.979Z,5.60
2019-03-05T01:12:25.561Z,5.60
2019-03-05T01:14:59.539Z,5.60
2019-03-05T01:17:29.928Z,5.70
2019-03-05T01:20:19.804Z,5.70
2019-03-05T01:22:50.533Z,5.80
2019-03-05T01:25:37.107Z,5.70
2019-03-05T01:28:07.290Z,5.70
2019-03-05T01:31:11.549Z,5.70
2019-03-05T01:33:53.321Z,5.70
2019-03-05T01:36:26.139Z,5.70
2019-03-05T01:39:13.309Z,5.60
2019-03-05T01:41:45.012Z,5.70
2019-03-05T01:44:14.532Z,5.70
2019-03-05T01:46:47.053Z,5.70
2019-03-05T01:49:21.567Z,5.60
2019-03-05T01:52:16.035Z,5.60
2019-03-05T01:54:50.833Z,5.50
2019-03-05T01:57:41.978Z,5.50
2019-03-05T02:00:14.413Z,5.50
2019-03-05T02:02:46.617Z,5.50
2019-03-05T02:05:47.472Z,5.40
2019-03-05T02:08:18.617Z,5.40
2019-03-05T02:10:50.549Z,5.40
2019-03-05T02:13:20.187Z,5.40
2019-03-05T02:15:59.000Z,5.30
2019-03-05T02:18:30.267Z,5.30
2019-03-05T02:21:01.545Z,5.30
2019-03-05T02:23:44.579Z,5.30
2019-03-05T02:26:52.732Z,5.30
2019-03-05T02:29:51.008Z,5.30
2019-03-05T02:33:01.173Z,5.20
2019-03-05T02:36:05.170Z,5.10
2019-03-05T02:39:11.029Z,5.20
2019-03-05T02:42:07.903Z,5.10
2019-03-05T02:45:14.438Z,5.00
2019-03-05T02:48:27.171Z,5.00
2019-03-05T02:51:28.769Z,5.00
2019-03-05T02:54:46.776Z,5.00
2019-03-05T02:57:14.695Z,5.00
2019-03-05T02:59:44.085Z,5.00
2019-03-05T03:05:44.830Z,4.90
2019-03-05T03:08:14.251Z,4.90
2019-03-05T03:10:46.175Z,4.90
2019-03-05T03:13:16.427Z,4.90
2019-03-05T03:18:55.469Z,4.80
2019-03-05T03:21:24.880Z,4.80
2019-03-05T03:23:54.500Z,4.70
2019-03-05T03:26:27.713Z,4.60
2019-03-05T03:28:58.369Z,4.60
2019-03-05T03:31:36.781Z,4.60
2019-03-05T03:34:07.315Z,4.60
2019-03-05T03:36:37.531Z,4.60
2019-03-05T03:39:06.850Z,4.60
2019-03-05T03:41:42.766Z,4.50
2019-03-05T03:44:11.732Z,4.50
2019-03-05T03:49:36.385Z,4.60
2019-03-05T03:52:07.018Z,4.70
2019-03-05T03:54:53.199Z,4.70
2019-03-05T03:57:23.920Z,4.70
2019-03-05T03:59:57.289Z,4.60
2019-03-05T04:02:27.279Z,4.60
2019-03-05T04:04:58.412Z,4.60
2019-03-05T04:07:28.891Z,4.60
2019-03-05T04:10:01.703Z,4.60
2019-03-05T04:12:32.720Z,4.60
2019-03-05T04:15:03.721Z,4.60
2019-03-05T04:17:33.262Z,4.60
2019-03-05T04:20:03.744Z,4.70
2019-03-05T04:22:44.732Z,4.70
2019-03-05T04:25:15.406Z,4.60
2019-03-05T04:27:45.248Z,4.60
2019-03-05T04:30:16.413Z,4.60
2019-03-05T04:32:46.849Z,4.60
2019-03-05T04:35:28.437Z,4.60
2019-03-05T04:37:58.314Z,4.60
2019-03-05T04:40:27.938Z,4.50
2019-03-05T04:42:59.234Z,4.50
2019-03-05T04:45:46.868Z,4.40
2019-03-05T04:48:17.772Z,4.40
2019-03-05T04:50:51.457Z,4.40
2019-03-05T04:53:24.378Z,4.30
2019-03-05T04:56:00.568Z,4.30
2019-03-05T04:58:32.954Z,4.30
2019-03-05T05:01:08.407Z,4.20
2019-03-05T05:03:40.654Z,4.20
2019-03-05T05:06:09.918Z,4.20
2019-03-05T05:08:39.495Z,4.20
2019-03-05T05:11:11.278Z,4.20
2019-03-05T05:13:46.088Z,4.20
2019-03-05T05:16:24.298Z,4.10
2019-03-05T05:18:54.730Z,4.10
2019-03-05T05:21:26.135Z,4.10
2019-03-05T05:24:06.229Z,4.10
2019-03-05T05:26:46.460Z,4.10
2019-03-05T05:29:16.661Z,4.10
2019-03-05T05:31:50.027Z,4.10
2019-03-05T05:34:26.878Z,4.10
2019-03-05T05:36:59.654Z,4.10
2019-03-05T05:40:05.130Z,4.10
2019-03-05T05:42:39.160Z,4.10
2019-03-05T05:45:27.507Z,4.10
2019-03-05T05:48:05.289Z,4.10
2019-03-05T05:50:37.728Z,4.10
2019-03-05T05:54:21.221Z,4.10
2019-03-05T05:57:36.822Z,4.10
2019-03-05T06:00:15.642Z,4.10
2019-03-05T06:03:08.427Z,4.10
2019-03-05T06:05:45.883Z,4.10
2019-03-05T06:08:40.159Z,4.00
2019-03-05T06:11:33.940Z,4.00
2019-03-05T06:28:38.372Z,4.10
2019-03-05T06:41:40.903Z,4.20
2019-03-05T06:44:11.145Z,4.20
2019-03-05T06:46:47.231Z,4.20
2019-03-05T07:00:06.556Z,4.20
2019-03-05T07:03:02.118Z,4.30
2019-03-05T07:06:44.575Z,4.30
2019-03-05T07:10:00.929Z,4.30
2019-03-05T07:13:09.270Z,4.30
2019-03-05T07:20:01.709Z,4.30
2019-03-05T07:22:51.107Z,4.30
2019-03-05T07:25:43.981Z,4.30
2019-03-05T07:28:13.626Z,4.30
2019-03-05T07:30:42.973Z,4.30
2019-03-05T07:33:12.315Z,4.30
2019-03-05T07:35:48.333Z,4.40
2019-03-05T07:38:17.322Z,4.40
2019-03-05T07:40:46.391Z,4.40
2019-03-05T07:43:15.427Z,4.40
2019-03-05T07:45:44.608Z,4.40
2019-03-05T07:48:13.577Z,4.40
2019-03-05T07:50:42.616Z,4.40
2019-03-05T07:53:11.849Z,4.40
2019-03-05T07:56:25.566Z,4.40
2019-03-05T07:58:57.642Z,4.40
2019-03-05T08:01:26.598Z,4.40
2019-03-05T08:03:55.774Z,4.40
2019-03-05T08:06:24.677Z,4.40
2019-03-05T08:09:30.286Z,4.40
2019-03-05T08:12:36.597Z,4.40
2019-03-05T08:15:31.959Z,4.40
2019-03-05T08:18:00.957Z,4.40
2019-03-05T08:20:30.118Z,4.40
2019-03-05T08:22:59.137Z,4.30
2019-03-05T08:25:34.700Z,4.40
2019-03-05T08:28:04.988Z,4.30
2019-03-05T08:30:33.986Z,4.40
2019-03-05T08:33:03.136Z,4.30
2019-03-05T08:35:33.685Z,4.30
2019-03-05T08:38:02.588Z,4.40
2019-03-05T08:40:31.669Z,4.40
2019-03-05T08:43:00.865Z,4.40
2019-03-05T08:45:30.966Z,4.40
2019-03-05T08:47:59.957Z,4.40
2019-03-05T08:50:30.621Z,4.30
2019-03-05T08:52:59.685Z,4.30
2019-03-05T08:55:33.132Z,4.30
2019-03-05T08:58:02.081Z,4.30
2019-03-05T09:00:31.026Z,4.30
2019-03-05T09:03:00.077Z,4.30
2019-03-05T09:05:34.317Z,4.20
2019-03-05T09:08:03.336Z,4.30
2019-03-05T09:10:32.701Z,4.30
2019-03-05T09:13:01.754Z,4.30
2019-03-05T09:15:32.741Z,4.30
2019-03-05T09:18:01.729Z,4.20
2019-03-05T09:20:30.791Z,4.30
2019-03-05T09:22:59.845Z,4.30
2019-03-05T09:25:29.823Z,4.30
2019-03-05T09:27:59.110Z,4.30
2019-03-05T09:30:28.109Z,4.40
2019-03-05T09:32:58.317Z,4.40
2019-03-05T09:35:27.654Z,4.50
2019-03-05T09:37:56.509Z,4.50
2019-03-05T09:40:25.933Z,4.60
2019-03-05T09:42:54.962Z,4.70
2019-03-05T09:45:34.882Z,4.80
2019-03-05T09:48:04.281Z,4.80
2019-03-05T09:50:33.558Z,4.70
2019-03-05T09:53:02.852Z,4.70
2019-03-05T09:55:35.281Z,4.70
2019-03-05T09:58:08.418Z,4.70
2019-03-05T10:00:35.487Z,4.60
2019-03-05T10:03:04.949Z,4.60
2019-03-05T10:05:34.208Z,4.60
2019-03-05T10:08:03.370Z,4.60
2019-03-05T10:10:33.406Z,4.70
2019-03-05T10:13:04.351Z,4.70
2019-03-05T10:16:37.942Z,4.60
2019-03-05T10:19:07.278Z,4.60
2019-03-05T10:21:46.260Z,4.60
2019-03-05T10:24:11.530Z,4.60
2019-03-05T10:26:43.327Z,4.60
2019-03-05T10:29:14.631Z,4.70
2019-03-05T10:31:46.811Z,4.70
2019-03-05T10:34:15.858Z,4.70
2019-03-05T10:36:46.190Z,4.80
2019-03-05T10:39:30.874Z,4.80
2019-03-05T10:42:00.479Z,4.80
2019-03-05T10:44:47.029Z,4.80
2019-03-05T10:47:25.046Z,4.90
2019-03-05T10:50:50.454Z,4.90
2019-03-05T10:56:59.497Z,4.90
2019-03-05T10:59:38.842Z,4.90
2019-03-05T11:02:15.430Z,4.90
2019-03-05T11:05:23.908Z,4.80
2019-03-05T11:08:18.464Z,4.90
2019-03-05T11:14:02.581Z,4.90
2019-03-05T11:16:40.500Z,4.90
2019-03-05T11:19:34.065Z,4.90
2019-03-05T11:22:39.791Z,5.00
2019-03-05T11:25:35.893Z,5.00
2019-03-05T11:28:06.868Z,5.00
2019-03-05T11:31:16.945Z,4.90
2019-03-05T11:34:13.454Z,5.00
2019-03-05T11:36:47.145Z,5.10
2019-03-05T11:39:21.645Z,5.10
2019-03-05T11:42:22.127Z,5.10
2019-03-05T11:45:07.457Z,5.10
2019-03-05T11:47:39.286Z,5.20
2019-03-05T11:50:21.387Z,5.10
2019-03-05T11:52:52.912Z,5.10
2019-03-05T11:55:30.362Z,5.20
2019-03-05T12:01:10.251Z,5.20
2019-03-05T12:03:43.902Z,5.20
2019-03-05T12:07:42.851Z,5.20
2019-03-05T12:10:46.041Z,5.20
2019-03-05T12:13:17.601Z,5.20
2019-03-05T12:16:04.444Z,5.20
2019-03-05T12:18:44.476Z,5.20
2019-03-05T12:21:13.545Z,5.20
2019-03-05T12:23:52.146Z,5.30
2019-03-05T12:26:26.207Z,5.20
2019-03-05T12:28:57.491Z,5.30
2019-03-05T12:31:34.214Z,5.30
2019-03-05T12:34:07.260Z,5.30
2019-03-05T12:36:41.785Z,5.30
2019-03-05T12:39:17.228Z,5.40
2019-03-05T12:41:47.312Z,5.40
2019-03-05T12:44:36.394Z,5.40
2019-03-05T12:47:15.888Z,5.40
2019-03-05T12:49:48.325Z,5.40
2019-03-05T12:52:21.804Z,5.40
2019-03-05T12:55:21.713Z,5.50
2019-03-05T12:58:31.215Z,5.40
2019-03-05T13:01:04.832Z,5.40
2019-03-05T13:03:42.264Z,5.30
2019-03-05T13:06:15.895Z,5.30
2019-03-05T13:08:49.669Z,5.30
2019-03-05T13:11:21.750Z,5.30
2019-03-05T13:14:05.948Z,5.30
2019-03-05T13:16:25.967Z,5.40
2019-03-05T13:18:58.638Z,5.30
2019-03-05T13:21:36.254Z,5.30
2019-03-05T13:24:13.904Z,5.20
2019-03-05T13:26:48.920Z,5.20
2019-03-05T13:29:22.691Z,5.20
2019-03-05T13:31:54.233Z,5.10
2019-03-05T13:34:56.980Z,5.10
2019-03-05T13:37:50.947Z,5.00
2019-03-05T13:40:30.135Z,5.00
2019-03-05T13:43:21.640Z,5.00
2019-03-05T13:46:04.601Z,5.00
2019-03-05T13:49:14.400Z,5.00
2019-03-05T13:52:05.723Z,5.10
2019-03-05T13:55:17.884Z,5.10
2019-03-05T13:58:13.429Z,5.10
2019-03-05T14:00:47.208Z,5.20
2019-03-05T14:03:25.744Z,5.30
2019-03-05T14:06:36.753Z,5.30
2019-03-05T14:09:23.316Z,5.30
2019-03-05T14:12:21.458Z,5.30
2019-03-05T14:14:52.209Z,5.30
2019-03-05T14:18:31.134Z,5.30
2019-03-05T14:21:40.163Z,5.30
2019-03-05T14:24:10.777Z,5.20
2019-03-05T14:27:04.237Z,5.20
2019-03-05T14:29:41.029Z,5.20
2019-03-05T14:32:14.661Z,5.10
2019-03-05T14:34:55.623Z,5.10
2019-03-05T14:37:24.871Z,5.10
2019-03-05T14:39:55.165Z,5.10
2019-03-05T14:42:25.441Z,5.10
2019-03-05T14:44:54.994Z,5.10
2019-03-05T14:47:34.407Z,5.00
2019-03-05T14:50:05.316Z,5.00
2019-03-05T14:52:35.586Z,5.00
2019-03-05T14:55:15.526Z,5.00
2019-03-05T14:57:46.559Z,5.00
2019-03-05T15:00:23.715Z,5.00
2019-03-05T15:02:56.336Z,5.00
2019-03-05T15:05:28.706Z,5.10
2019-03-05T15:08:01.890Z,5.10
2019-03-05T15:10:42.402Z,5.20
2019-03-05T15:13:16.225Z,5.20
2019-03-05T15:15:45.928Z,5.20
2019-03-05T15:18:19.101Z,5.20
2019-03-05T15:20:49.956Z,5.20
2019-03-05T15:23:19.658Z,5.10
2019-03-05T15:25:50.172Z,5.10
2019-03-05T15:28:20.586Z,5.10
2019-03-05T15:30:57.604Z,5.20
2019-03-05T15:33:26.607Z,5.20
2019-03-05T15:35:56.864Z,5.20
2019-03-05T15:38:29.695Z,5.20
2019-03-05T15:40:58.735Z,5.20
2019-03-05T15:43:28.501Z,5.10
2019-03-05T15:45:58.202Z,5.00
2019-03-05T15:48:27.672Z,5.00
2019-03-05T15:51:05.255Z,5.00
2019-03-05T15:53:34.604Z,5.00
2019-03-05T15:56:09.586Z,4.90
2019-03-05T15:58:42.497Z,4.90
2019-03-05T16:01:18.799Z,4.90
2019-03-05T16:03:45.856Z,4.90
2019-03-05T16:06:44.417Z,4.90
2019-03-05T16:09:17.905Z,4.80
2019-03-05T16:11:49.319Z,4.70
2019-03-05T16:14:21.502Z,4.70
2019-03-05T16:16:58.157Z,4.60
2019-03-05T16:19:27.805Z,4.60
2019-03-05T16:21:59.226Z,4.60
2019-03-05T16:24:51.137Z,4.50
2019-03-05T16:27:30.204Z,4.60
2019-03-05T16:34:01.218Z,4.60
2019-03-05T16:37:17.296Z,4.60
2019-03-05T16:43:27.880Z,4.60
2019-03-05T16:46:34.135Z,4.70
2019-03-05T16:49:27.214Z,4.70
2019-03-05T16:52:21.509Z,4.80
2019-03-05T16:55:31.767Z,4.90
2019-03-05T16:58:20.384Z,4.90
2019-03-05T17:01:10.325Z,4.90
2019-03-05T17:04:11.826Z,4.90
2019-03-05T17:07:05.209Z,4.90
2019-03-05T17:09:55.768Z,4.80
2019-03-05T17:12:34.765Z,4.90
2019-03-05T17:15:26.762Z,4.90
2019-03-05T17:18:06.210Z,4.90
2019-03-05T17:20:36.407Z,4.90
2019-03-05T17:23:15.027Z,4.90
2019-03-05T17:25:47.376Z,4.90
2019-03-05T17:28:16.525Z,5.00
2019-03-05T17:30:45.898Z,4.90
2019-03-05T17:33:17.395Z,4.90
2019-03-05T17:36:02.622Z,4.90
2019-03-05T17:38:33.471Z,4.90
2019-03-05T17:41:07.327Z,4.90
2019-03-05T17:43:38.013Z,5.00
2019-03-05T17:46:10.009Z,5.00
2019-03-05T17:48:40.335Z,5.00
2019-03-05T17:51:14.285Z,5.10
2019-03-05T17:53:44.935Z,5.10
2019-03-05T17:56:22.298Z,5.10
2019-03-05T17:58:54.816Z,5.10
2019-03-05T18:01:27.668Z,5.20
2019-03-05T18:03:59.662Z,5.20
2019-03-05T18:06:34.268Z,5.20
2019-03-05T18:09:08.717Z,5.20
2019-03-05T18:11:37.889Z,5.20
2019-03-05T18:14:07.269Z,5.20
2019-03-05T18:16:37.947Z,5.20
2019-03-05T18:19:07.302Z,5.10
2019-03-05T18:21:38.169Z,5.10
2019-03-05T18:24:07.237Z,5.10
2019-03-05T18:26:38.902Z,5.00
2019-03-05T18:29:11.014Z,5.10
2019-03-05T18:31:48.182Z,5.00
2019-03-05T18:34:17.457Z,5.00
2019-03-05T18:36:48.091Z,4.90
2019-03-05T18:39:18.866Z,4.80
2019-03-05T18:41:53.905Z,4.80
2019-03-05T18:44:29.673Z,4.80
2019-03-05T18:47:04.156Z,4.90
2019-03-05T18:49:40.521Z,4.90
2019-03-05T18:52:13.189Z,4.80
2019-03-05T18:54:57.662Z,4.80
2019-03-05T18:57:36.485Z,4.80
2019-03-05T19:00:14.645Z,4.70
2019-03-05T19:02:48.000Z,4.80
2019-03-05T19:05:21.197Z,4.80
2019-03-05T19:07:51.925Z,4.70
2019-03-05T19:10:43.944Z,4.80
2019-03-05T19:13:14.784Z,4.80
2019-03-05T19:15:52.329Z,4.70
2019-03-05T19:18:29.229Z,4.70
2019-03-05T19:20:58.995Z,4.70
2019-03-05T19:23:30.607Z,4.60
2019-03-05T19:26:06.913Z,4.70
2019-03-05T19:28:38.717Z,4.70
2019-03-05T19:31:29.938Z,4.70
2019-03-05T19:33:43.855Z,4.70
2019-03-05T19:36:20.445Z,4.70
2019-03-05T19:38:51.108Z,4.70
2019-03-05T19:41:20.502Z,4.70
2019-03-05T19:43:57.056Z,4.60
2019-03-05T19:46:41.041Z,4.60
2019-03-05T19:49:12.150Z,4.50
2019-03-05T19:51:52.089Z,4.50
2019-03-05T19:54:23.115Z,4.50
2019-03-05T19:56:53.875Z,4.50
2019-03-05T19:59:23.217Z,4.50
2019-03-05T20:02:06.288Z,4.50
2019-03-05T20:04:52.242Z,4.50
2019-03-05T20:07:22.348Z,4.40
2019-03-05T20:09:52.229Z,4.40
2019-03-05T20:13:08.954Z,4.40
2019-03-05T20:16:09.062Z,4.30
2019-03-05T20:18:48.478Z,4.20
2019-03-05T20:24:38.724Z,4.00
2019-03-05T20:27:32.264Z,3.90
2019-03-05T20:30:05.841Z,3.90
2019-03-05T20:32:40.385Z,3.90
2019-03-05T20:35:20.644Z,3.90
2019-03-05T20:38:01.507Z,4.00
2019-03-05T20:40:57.363Z,4.00
2019-03-05T20:43:32.883Z,4.00
2019-03-05T20:46:25.886Z,4.00
2019-03-05T20:48:58.775Z,4.00
2019-03-05T20:51:31.105Z,4.00
2019-03-05T20:54:30.191Z,4.00
2019-03-05T20:57:01.581Z,4.00
2019-03-05T20:59:44.858Z,4.00
2019-03-05T21:02:43.808Z,4.00
2019-03-05T21:05:24.001Z,4.00
2019-03-05T21:11:30.317Z,4.00
2019-03-05T21:14:35.748Z,3.90
2019-03-05T21:37:04.188Z,3.80
2019-03-05T21:40:02.540Z,3.80
2019-03-05T21:42:36.341Z,3.80
2019-03-05T21:49:16.891Z,3.90
2019-03-05T21:55:13.838Z,3.80
2019-03-05T21:57:48.419Z,3.70
2019-03-05T22:10:01.218Z,3.80
2019-03-05T22:12:31.083Z,3.80
2019-03-05T22:15:10.346Z,3.80
2019-03-05T22:17:40.886Z,3.80
2019-03-05T22:20:12.035Z,3.80
2019-03-05T22:22:41.545Z,3.80
2019-03-05T22:25:14.014Z,3.70
2019-03-05T22:27:43.104Z,3.70
2019-03-05T22:30:20.789Z,3.70
2019-03-05T22:32:52.632Z,3.70
2019-03-05T22:35:23.545Z,3.70
2019-03-05T22:37:55.907Z,3.70
2019-03-05T22:40:27.862Z,3.70
2019-03-05T22:43:01.098Z,3.60
2019-03-05T22:45:30.527Z,3.60
2019-03-05T22:48:03.419Z,3.50
2019-03-05T22:50:32.560Z,3.50
2019-03-05T22:53:01.846Z,3.50
2019-03-05T22:55:31.444Z,3.50
2019-03-05T22:58:04.293Z,3.50
2019-03-05T23:01:13.675Z,3.50
2019-03-05T23:04:01.822Z,3.50
2019-03-05T23:06:31.898Z,3.50
2019-03-05T23:09:01.898Z,3.50
2019-03-05T23:11:31.558Z,3.50
2019-03-05T23:14:01.935Z,3.60
2019-03-05T23:16:32.036Z,3.50
2019-03-05T23:19:05.972Z,3.60
2019-03-05T23:21:35.171Z,3.70
2019-03-05T23:24:04.205Z,3.70
2019-03-05T23:26:33.775Z,3.70
2019-03-05T23:29:02.808Z,3.70
2019-03-05T23:31:31.825Z,3.70
2019-03-05T23:34:03.288Z,3.80
2019-03-05T23:36:35.404Z,3.80
2019-03-05T23:39:07.488Z,3.80
2019-03-05T23:41:36.415Z,3.90
2019-03-05T23:44:05.658Z,3.90
2019-03-05T23:46:34.657Z,3.90
2019-03-05T23:49:03.735Z,3.90
2019-03-05T23:51:32.752Z,3.90
2019-03-05T23:54:01.908Z,3.90
2019-03-05T23:56:33.050Z,3.90
2019-03-05T23:59:03.418Z,4.00
